Sto Camellia — D7LH — position and weather

sailwx.info

Track history (hours):
 
Tides and Currents Weather Stations Pressure Air Temp Water Temp Dewpoint Dewpoint Depression Visibility Wind Speed Wind Dir Waves Ship Positions

Sto Camellia

Last reported at 2017-Oct-12 15:59 UTC. Time now 2017-Oct-18 06:02 UTC.
Position N 31°02' E 122°16'.

Length 121 m; draft 5.6 m.

Type: Ship (hazmat cat C). MMSI: 440036000.

Date/timePositionNaut miles runAvg speedWind from/ knotsBaromVisibWave heightAir tempDewpointWater temp
2017-Oct-12 15:59N 31°02' E 122°16'611.5
2017-Oct-12 15:30N 31°03' E 122°10'510.4
2017-Oct-12 15:00N 31°04' E 122°04'612.3
2017-Oct-12 14:30N 31°06' E 121°57'714.8
2017-Oct-12 14:00N 31°11' E 121°50'815.2
2017-Oct-12 13:30N 31°17' E 121°45'612.0
2017-Oct-12 13:00N 31°21' E 121°40'611.3
2017-Oct-12 12:30N 31°24' E 121°34'5 9.6
2017-Oct-12 12:00N 31°26' E 121°29'510.3
2017-Oct-12 11:30N 31°30' E 121°25'611.3
2017-Oct-12 11:00N 31°33' E 121°20'611.9
2017-Oct-12 10:30N 31°38' E 121°15'510.6
2017-Oct-12 10:00N 31°41' E 121°10'611.8
2017-Oct-12 09:30N 31°45' E 121°05'711.4
2017-Oct-12 08:55N 31°47' E 120°57'2510.3
2017-Oct-12 06:27N 32°01' E 120°33'  
2017-Oct-09 06:40N 32°01' E 120°23'2 8.2
2017-Oct-09 06:28N 32°02' E 120°24'26 2.7
2017-Oct-08 20:43N 31°53' E 120°54'0 0.0
2017-Oct-08 20:22N 31°53' E 120°54'0 0.0
2017-Oct-08 19:52N 31°53' E 120°54'0 0.0
2017-Oct-07 12:35N 31°53' E 120°53'1 6.7
2017-Oct-07 12:30N 31°53' E 120°53'19 2.0
2017-Oct-07 02:56N 32°01' E 120°32'510.1
2017-Oct-07 02:28N 32°01' E 120°27'2 4.4
2017-Oct-07 01:59N 31°58' E 120°27'0 0.0
2017-Oct-07 01:26N 31°58' E 120°27'0 0.0
2017-Oct-07 00:59N 31°58' E 120°27'0 0.0
2017-Oct-07 00:29N 31°58' E 120°27'0 0.0
2017-Oct-06 23:59N 31°58' E 120°27'0 0.0
2017-Oct-06 23:29N 31°58' E 120°27'0 0.0
2017-Oct-06 22:56N 31°58' E 120°27'0 0.0
2017-Oct-06 22:29N 31°58' E 120°27'0 0.0
2017-Oct-06 21:59N 31°58' E 120°27'0 0.0
2017-Oct-06 21:26N 31°58' E 120°27'0 0.0
2017-Oct-06 20:59N 31°58' E 120°27'0 0.0
2017-Oct-06 20:29N 31°58' E 120°27'0 0.0
2017-Oct-06 19:59N 31°58' E 120°27'0 0.0
2017-Oct-06 19:29N 31°58' E 120°27'0 0.0
2017-Oct-06 18:59N 31°58' E 120°27'0 0.0
2017-Oct-06 18:29N 31°58' E 120°27'0 0.0
2017-Oct-06 17:59N 31°58' E 120°27'0 0.0
2017-Oct-06 17:29N 31°58' E 120°27'0 0.0
2017-Oct-06 16:59N 31°58' E 120°27'0 0.0
2017-Oct-06 16:29N 31°58' E 120°27'0 0.0
2017-Oct-06 15:59N 31°58' E 120°27'0 0.0
2017-Oct-06 15:29N 31°58' E 120°27'0 0.0
2017-Oct-06 14:59N 31°58' E 120°27'0 0.0
2017-Oct-06 14:29N 31°58' E 120°27'0 0.0
2017-Oct-06 13:59N 31°58' E 120°27'0 0.0
2017-Oct-06 13:29N 31°58' E 120°27'0 0.0
2017-Oct-06 12:56N 31°58' E 120°27'0 0.0
2017-Oct-06 12:29N 31°58' E 120°27'0 0.0
2017-Oct-06 11:59N 31°58' E 120°27'0 0.0
2017-Oct-06 11:29N 31°58' E 120°27'0 0.0
2017-Oct-06 10:56N 31°58' E 120°27'0 0.0
2017-Oct-06 10:29N 31°58' E 120°27'0 0.0
2017-Oct-06 09:56N 31°58' E 120°27'0 0.0
2017-Oct-06 09:29N 31°58' E 120°27'0 0.0
2017-Oct-06 08:56N 31°58' E 120°27'0 0.0
2017-Oct-06 08:26N 31°58' E 120°27'0 0.0
2017-Oct-06 07:56N 31°58' E 120°27'0 0.0
2017-Oct-06 07:29N 31°58' E 120°27'0 0.0
2017-Oct-06 06:59N 31°58' E 120°27'0 0.0
2017-Oct-06 06:26N 31°58' E 120°27'0 0.0
2017-Oct-06 06:00N 31°58' E 120°27'3 5.9
2017-Oct-06 05:30N 32°01' E 120°27'4 7.2
2017-Oct-06 05:00N 32°02' E 120°31'31 6.7
2017-Oct-06 00:23N 31°46' E 121°03'3 8.1
2017-Oct-05 23:58N 31°45' E 121°06'4 7.8
2017-Oct-05 23:28N 31°42' E 121°09'4 8.0
2017-Oct-05 23:00N 31°40' E 121°13'5 7.8
2017-Oct-05 22:25N 31°37' E 121°17'3 7.7
2017-Oct-05 22:00N 31°35' E 121°20'1 1.3
2017-Oct-05 21:30N 31°35' E 121°20'0 0.0
2017-Oct-05 21:00N 31°35' E 121°20'0 0.0
2017-Oct-05 20:30N 31°35' E 121°20'0 0.0
2017-Oct-05 20:00N 31°35' E 121°20'0 0.0
2017-Oct-05 19:30N 31°35' E 121°20'0 0.0
2017-Oct-05 19:00N 31°35' E 121°20'0 0.2
2017-Oct-05 18:27N 31°35' E 121°20'0 0.1
2017-Oct-05 18:00N 31°35' E 121°20'0 0.0
2017-Oct-05 17:30N 31°35' E 121°20'0 0.1
2017-Oct-05 17:00N 31°35' E 121°20'0 0.0
2017-Oct-05 15:30N 31°35' E 121°20'0 0.0
2017-Oct-05 15:00N 31°35' E 121°20'0 0.0
2017-Oct-05 14:30N 31°35' E 121°20'0 0.3
2017-Oct-05 14:00N 31°35' E 121°20'0 0.1
2017-Oct-05 13:30N 31°35' E 121°20'0 0.0
2017-Oct-05 13:00N 31°35' E 121°20'0 0.0
2017-Oct-05 12:30N 31°35' E 121°20'0 0.0
2017-Oct-05 12:00N 31°35' E 121°20'0 0.0
2017-Oct-05 11:30N 31°35' E 121°20'0 0.0
2017-Oct-05 11:00N 31°35' E 121°20'0 0.0
2017-Oct-05 10:30N 31°35' E 121°20'0 0.9
2017-Oct-05 10:00N 31°34' E 121°21'4 7.8
2017-Oct-05 09:30N 31°31' E 121°23'4 8.7
2017-Oct-05 09:00N 31°28' E 121°27'4 8.2
2017-Oct-05 08:30N 31°25' E 121°31'2 4.9
2017-Oct-05 08:00N 31°24' E 121°33'4 7.2
2017-Oct-05 07:30N 31°23' E 121°37'4 8.1
2017-Oct-05 07:00N 31°20' E 121°41'4 8.2
2017-Oct-05 06:30N 31°19' E 121°45'4 8.1
2017-Oct-05 06:00N 31°17' E 121°50'4 8.9
2017-Oct-05 05:30N 31°16' E 121°55'5 9.5
2017-Oct-05 05:00N 31°15' E 122°00'4 8.9
2017-Oct-05 04:30N 31°14' E 122°05'5 9.7
2017-Oct-05 04:00N 31°11' E 122°10'612.2
2017-Oct-05 03:30N 31°08' E 122°16'7 9.6
2017-Oct-05 02:49N 31°06' E 122°23'3 8.0
2017-Oct-05 02:29N 31°07' E 122°26'  
Track history (hours):
 
Tides and Currents Weather Stations Pressure Air Temp Water Temp Dewpoint Dewpoint Depression Visibility Wind Speed Wind Dir Waves Ship Positions

Sto Camellia

Last reported at 2017-Oct-12 15:59 UTC. Time now 2017-Oct-18 06:02 UTC.
Position N 31°02' E 122°16'.

Length 121 m; draft 5.6 m.

Type: Ship (hazmat cat C). MMSI: 440036000.

Date/timePositionNaut miles runAvg speedWind from/ knotsBaromVisibWave heightAir tempDewpointWater temp
2017-Oct-12 15:59N 31°02' E 122°16'611.5
2017-Oct-12 15:30N 31°03' E 122°10'510.4
2017-Oct-12 15:00N 31°04' E 122°04'612.3
2017-Oct-12 14:30N 31°06' E 121°57'714.8
2017-Oct-12 14:00N 31°11' E 121°50'815.2
2017-Oct-12 13:30N 31°17' E 121°45'612.0
2017-Oct-12 13:00N 31°21' E 121°40'611.3
2017-Oct-12 12:30N 31°24' E 121°34'5 9.6
2017-Oct-12 12:00N 31°26' E 121°29'510.3
2017-Oct-12 11:30N 31°30' E 121°25'611.3
2017-Oct-12 11:00N 31°33' E 121°20'611.9
2017-Oct-12 10:30N 31°38' E 121°15'510.6
2017-Oct-12 10:00N 31°41' E 121°10'611.8
2017-Oct-12 09:30N 31°45' E 121°05'711.4
2017-Oct-12 08:55N 31°47' E 120°57'2510.3
2017-Oct-12 06:27N 32°01' E 120°33'  
2017-Oct-09 06:40N 32°01' E 120°23'2 8.2
2017-Oct-09 06:28N 32°02' E 120°24'26 2.7
2017-Oct-08 20:43N 31°53' E 120°54'0 0.0
2017-Oct-08 20:22N 31°53' E 120°54'0 0.0
2017-Oct-08 19:52N 31°53' E 120°54'0 0.0
2017-Oct-07 12:35N 31°53' E 120°53'1 6.7
2017-Oct-07 12:30N 31°53' E 120°53'19 2.0
2017-Oct-07 02:56N 32°01' E 120°32'510.1
2017-Oct-07 02:28N 32°01' E 120°27'2 4.4
2017-Oct-07 01:59N 31°58' E 120°27'0 0.0
2017-Oct-07 01:26N 31°58' E 120°27'0 0.0
2017-Oct-07 00:59N 31°58' E 120°27'0 0.0
2017-Oct-07 00:29N 31°58' E 120°27'0 0.0
2017-Oct-06 23:59N 31°58' E 120°27'0 0.0
2017-Oct-06 23:29N 31°58' E 120°27'0 0.0
2017-Oct-06 22:56N 31°58' E 120°27'0 0.0
2017-Oct-06 22:29N 31°58' E 120°27'0 0.0
2017-Oct-06 21:59N 31°58' E 120°27'0 0.0
2017-Oct-06 21:26N 31°58' E 120°27'0 0.0
2017-Oct-06 20:59N 31°58' E 120°27'0 0.0
2017-Oct-06 20:29N 31°58' E 120°27'0 0.0
2017-Oct-06 19:59N 31°58' E 120°27'0 0.0
2017-Oct-06 19:29N 31°58' E 120°27'0 0.0
2017-Oct-06 18:59N 31°58' E 120°27'0 0.0
2017-Oct-06 18:29N 31°58' E 120°27'0 0.0
2017-Oct-06 17:59N 31°58' E 120°27'0 0.0
2017-Oct-06 17:29N 31°58' E 120°27'0 0.0
2017-Oct-06 16:59N 31°58' E 120°27'0 0.0
2017-Oct-06 16:29N 31°58' E 120°27'0 0.0
2017-Oct-06 15:59N 31°58' E 120°27'0 0.0
2017-Oct-06 15:29N 31°58' E 120°27'0 0.0
2017-Oct-06 14:59N 31°58' E 120°27'0 0.0
2017-Oct-06 14:29N 31°58' E 120°27'0 0.0
2017-Oct-06 13:59N 31°58' E 120°27'0 0.0
2017-Oct-06 13:29N 31°58' E 120°27'0 0.0
2017-Oct-06 12:56N 31°58' E 120°27'0 0.0
2017-Oct-06 12:29N 31°58' E 120°27'0 0.0
2017-Oct-06 11:59N 31°58' E 120°27'0 0.0
2017-Oct-06 11:29N 31°58' E 120°27'0 0.0
2017-Oct-06 10:56N 31°58' E 120°27'0 0.0
2017-Oct-06 10:29N 31°58' E 120°27'0 0.0
2017-Oct-06 09:56N 31°58' E 120°27'0 0.0
2017-Oct-06 09:29N 31°58' E 120°27'0 0.0
2017-Oct-06 08:56N 31°58' E 120°27'0 0.0
2017-Oct-06 08:26N 31°58' E 120°27'0 0.0
2017-Oct-06 07:56N 31°58' E 120°27'0 0.0
2017-Oct-06 07:29N 31°58' E 120°27'0 0.0
2017-Oct-06 06:59N 31°58' E 120°27'0 0.0
2017-Oct-06 06:26N 31°58' E 120°27'0 0.0
2017-Oct-06 06:00N 31°58' E 120°27'3 5.9
2017-Oct-06 05:30N 32°01' E 120°27'4 7.2
2017-Oct-06 05:00N 32°02' E 120°31'31 6.7
2017-Oct-06 00:23N 31°46' E 121°03'3 8.1
2017-Oct-05 23:58N 31°45' E 121°06'4 7.8
2017-Oct-05 23:28N 31°42' E 121°09'4 8.0
2017-Oct-05 23:00N 31°40' E 121°13'5 7.8
2017-Oct-05 22:25N 31°37' E 121°17'3 7.7
2017-Oct-05 22:00N 31°35' E 121°20'1 1.3
2017-Oct-05 21:30N 31°35' E 121°20'0 0.0
2017-Oct-05 21:00N 31°35' E 121°20'0 0.0
2017-Oct-05 20:30N 31°35' E 121°20'0 0.0
2017-Oct-05 20:00N 31°35' E 121°20'0 0.0
2017-Oct-05 19:30N 31°35' E 121°20'0 0.0
2017-Oct-05 19:00N 31°35' E 121°20'0 0.2
2017-Oct-05 18:27N 31°35' E 121°20'0 0.1
2017-Oct-05 18:00N 31°35' E 121°20'0 0.0
2017-Oct-05 17:30N 31°35' E 121°20'0 0.1
2017-Oct-05 17:00N 31°35' E 121°20'0 0.0
2017-Oct-05 15:30N 31°35' E 121°20'0 0.0
2017-Oct-05 15:00N 31°35' E 121°20'0 0.0
2017-Oct-05 14:30N 31°35' E 121°20'0 0.3
2017-Oct-05 14:00N 31°35' E 121°20'0 0.1
2017-Oct-05 13:30N 31°35' E 121°20'0 0.0
2017-Oct-05 13:00N 31°35' E 121°20'0 0.0
2017-Oct-05 12:30N 31°35' E 121°20'0 0.0
2017-Oct-05 12:00N 31°35' E 121°20'0 0.0
2017-Oct-05 11:30N 31°35' E 121°20'0 0.0
2017-Oct-05 11:00N 31°35' E 121°20'0 0.0
2017-Oct-05 10:30N 31°35' E 121°20'0 0.9
2017-Oct-05 10:00N 31°34' E 121°21'4 7.8
2017-Oct-05 09:30N 31°31' E 121°23'4 8.7
2017-Oct-05 09:00N 31°28' E 121°27'4 8.2
2017-Oct-05 08:30N 31°25' E 121°31'2 4.9
2017-Oct-05 08:00N 31°24' E 121°33'4 7.2
2017-Oct-05 07:30N 31°23' E 121°37'4 8.1
2017-Oct-05 07:00N 31°20' E 121°41'4 8.2
2017-Oct-05 06:30N 31°19' E 121°45'4 8.1
2017-Oct-05 06:00N 31°17' E 121°50'4 8.9
2017-Oct-05 05:30N 31°16' E 121°55'5 9.5
2017-Oct-05 05:00N 31°15' E 122°00'4 8.9
2017-Oct-05 04:30N 31°14' E 122°05'5 9.7
2017-Oct-05 04:00N 31°11' E 122°10'612.2
2017-Oct-05 03:30N 31°08' E 122°16'7 9.6
2017-Oct-05 02:49N 31°06' E 122°23'3 8.0
2017-Oct-05 02:29N 31°07' E 122°26'  

Dump ship's entire track history